createdAt,value
2022-11-26T00:01:44.049Z,8.30
2022-11-26T00:04:10.850Z,8.07
2022-11-26T00:06:41.691Z,8.20
2022-11-26T00:09:18.903Z,9.00
2022-11-26T00:11:48.761Z,9.30
2022-11-26T00:14:17.266Z,9.37
2022-11-26T00:16:45.043Z,9.60
2022-11-26T00:19:11.996Z,9.07
2022-11-26T00:21:42.228Z,8.63
2022-11-26T00:24:29.683Z,9.40
2022-11-26T00:26:59.746Z,8.30
2022-11-26T00:29:26.564Z,8.67
2022-11-26T00:31:53.443Z,8.67
2022-11-26T00:34:20.316Z,8.03
2022-11-26T00:36:48.321Z,7.83
2022-11-26T00:39:24.423Z,7.57
2022-11-26T00:41:53.250Z,8.13
2022-11-26T00:44:25.867Z,7.97
2022-11-26T00:46:53.007Z,7.93
2022-11-26T00:49:20.960Z,8.97
2022-11-26T00:51:48.123Z,8.33
2022-11-26T00:54:19.206Z,9.23
2022-11-26T00:56:48.128Z,8.87
2022-11-26T00:59:20.410Z,7.67
2022-11-26T01:01:47.649Z,7.63
2022-11-26T01:04:14.642Z,8.43
2022-11-26T01:06:44.695Z,8.73
2022-11-26T01:09:20.163Z,8.57
2022-11-26T01:11:53.480Z,8.43
2022-11-26T01:14:24.554Z,8.30
2022-11-26T01:16:57.151Z,7.57
2022-11-26T01:19:24.127Z,7.87
2022-11-26T01:21:50.962Z,8.10
2022-11-26T01:24:17.807Z,9.30
2022-11-26T01:26:45.492Z,8.17
2022-11-26T01:29:19.801Z,9.27
2022-11-26T01:31:47.310Z,9.07
2022-11-26T01:34:14.502Z,9.20
2022-11-26T01:36:42.426Z,8.90
2022-11-26T01:39:20.819Z,9.90
2022-11-26T01:42:19.547Z,9.57
2022-11-26T01:44:46.403Z,8.87
2022-11-26T01:47:27.713Z,8.97
2022-11-26T01:50:31.126Z,9.57
2022-11-26T01:53:11.226Z,9.20
2022-11-26T01:55:51.425Z,9.70
2022-11-26T01:58:28.126Z,9.20
2022-11-26T02:00:55.823Z,10.10
2022-11-26T02:03:24.012Z,10.03
2022-11-26T02:06:08.542Z,9.13
2022-11-26T02:08:36.556Z,9.60
2022-11-26T02:11:24.810Z,9.47
2022-11-26T02:13:58.535Z,9.93
2022-11-26T02:17:13.084Z,10.17
2022-11-26T02:20:05.323Z,10.83
2022-11-26T02:22:50.035Z,9.40
2022-11-26T02:26:03.849Z,10.13
2022-11-26T02:29:17.321Z,9.70
2022-11-26T02:32:03.389Z,9.37
2022-11-26T02:34:45.946Z,9.67
2022-11-26T02:37:25.413Z,8.73
2022-11-26T02:39:52.256Z,9.47
2022-11-26T02:42:35.266Z,9.70
2022-11-26T02:45:11.298Z,9.50
2022-11-26T02:47:43.069Z,11.00
2022-11-26T02:50:20.721Z,10.37
2022-11-26T02:52:51.162Z,11.10
2022-11-26T02:55:22.373Z,10.13
2022-11-26T02:57:51.895Z,9.77
2022-11-26T03:00:20.270Z,9.77
2022-11-26T03:02:52.418Z,10.07
2022-11-26T03:05:20.497Z,9.97
2022-11-26T03:07:51.836Z,10.40
2022-11-26T03:10:26.527Z,12.23
2022-11-26T03:12:53.954Z,11.90
2022-11-26T03:15:21.793Z,12.20
2022-11-26T03:17:48.944Z,9.57
2022-11-26T03:20:16.120Z,10.27
2022-11-26T03:22:43.368Z,10.03
2022-11-26T03:25:11.316Z,9.83
2022-11-26T03:27:38.359Z,10.53
2022-11-26T03:30:06.199Z,11.33
2022-11-26T03:32:33.030Z,10.87
2022-11-26T03:35:00.047Z,11.97
2022-11-26T03:37:26.840Z,11.23
2022-11-26T03:39:53.585Z,11.13
2022-11-26T03:42:20.349Z,11.17
2022-11-26T03:44:47.117Z,11.70
2022-11-26T03:47:13.928Z,11.90
2022-11-26T03:49:40.746Z,11.70
2022-11-26T03:52:07.512Z,11.33
2022-11-26T03:54:34.318Z,11.67
2022-11-26T03:57:01.165Z,11.03
2022-11-26T03:59:28.087Z,10.80
2022-11-26T04:01:55.100Z,10.33
2022-11-26T04:04:21.970Z,10.17
2022-11-26T04:06:48.851Z,11.27
2022-11-26T04:09:15.595Z,10.00
2022-11-26T04:11:42.568Z,10.53
2022-11-26T04:14:09.323Z,10.40
2022-11-26T04:16:36.424Z,12.13
2022-11-26T04:19:03.915Z,11.87
2022-11-26T04:21:30.729Z,11.40
2022-11-26T04:23:57.537Z,11.07
2022-11-26T04:26:24.332Z,11.77
2022-11-26T04:28:51.391Z,11.17
2022-11-26T04:31:18.530Z,10.90
2022-11-26T04:33:45.372Z,10.23
2022-11-26T04:36:12.716Z,10.70
2022-11-26T04:38:39.486Z,10.67
2022-11-26T04:41:06.577Z,10.93
2022-11-26T04:43:33.983Z,9.93
2022-11-26T04:46:01.008Z,9.33
2022-11-26T04:48:27.898Z,9.13
2022-11-26T04:50:54.741Z,8.97
2022-11-26T04:53:22.124Z,8.47
2022-11-26T04:55:51.495Z,9.30
2022-11-26T04:58:20.910Z,9.37
2022-11-26T05:00:50.943Z,9.77
2022-11-26T05:03:19.345Z,10.40
2022-11-26T05:05:47.180Z,9.90
2022-11-26T05:08:14.255Z,9.77
2022-11-26T05:10:41.111Z,10.13
2022-11-26T05:13:08.090Z,9.43
2022-11-26T05:15:34.939Z,10.50
2022-11-26T05:18:01.973Z,9.40
2022-11-26T05:20:28.738Z,10.13
2022-11-26T05:22:55.523Z,10.43
2022-11-26T05:25:22.423Z,10.70
2022-11-26T05:27:49.194Z,10.90
2022-11-26T05:30:16.291Z,11.37
2022-11-26T05:32:43.059Z,13.03
2022-11-26T05:35:10.301Z,12.10
2022-11-26T05:37:37.599Z,10.73
2022-11-26T05:40:06.035Z,10.13
2022-11-26T05:42:32.911Z,11.50
2022-11-26T05:44:59.863Z,12.03
2022-11-26T05:47:26.717Z,10.87
2022-11-26T05:49:53.738Z,11.23
2022-11-26T05:52:21.490Z,11.07
2022-11-26T05:54:48.421Z,11.87
2022-11-26T05:57:15.457Z,11.17
2022-11-26T05:59:42.459Z,11.53
2022-11-26T06:02:09.334Z,11.43
2022-11-26T06:04:36.499Z,10.93
2022-11-26T06:07:03.525Z,10.37
2022-11-26T06:09:30.309Z,9.90
2022-11-26T06:11:57.156Z,9.03
2022-11-26T06:14:23.955Z,9.63
2022-11-26T06:16:50.801Z,10.23
2022-11-26T06:19:17.701Z,11.07
2022-11-26T06:21:44.547Z,10.20
2022-11-26T06:24:11.815Z,9.57
2022-11-26T06:26:38.659Z,10.40
2022-11-26T06:29:05.605Z,9.50
2022-11-26T06:31:33.124Z,9.93
2022-11-26T06:34:00.123Z,9.53
2022-11-26T06:36:26.936Z,9.20
2022-11-26T06:38:53.844Z,9.40
2022-11-26T06:41:20.678Z,9.27
2022-11-26T06:43:47.726Z,9.67
2022-11-26T06:46:14.641Z,10.70
2022-11-26T06:48:41.766Z,8.70
2022-11-26T06:51:13.466Z,9.07
2022-11-26T06:53:40.809Z,8.33
2022-11-26T06:56:18.373Z,8.63
2022-11-26T06:58:46.870Z,7.57
2022-11-26T07:01:21.344Z,7.97
2022-11-26T07:03:48.388Z,8.97
2022-11-26T07:06:28.731Z,9.47
2022-11-26T07:08:58.616Z,7.97
2022-11-26T07:11:26.359Z,8.87
2022-11-26T07:13:53.566Z,8.90
2022-11-26T07:16:21.045Z,7.53
2022-11-26T07:18:51.495Z,7.37
2022-11-26T07:21:19.848Z,7.50
2022-11-26T07:23:47.976Z,7.27
2022-11-26T07:26:16.615Z,5.77
2022-11-26T07:28:43.810Z,5.23
2022-11-26T07:31:17.134Z,6.93
2022-11-26T07:33:45.938Z,6.40
2022-11-26T07:36:23.026Z,7.17
2022-11-26T07:38:50.156Z,7.57
2022-11-26T07:41:19.725Z,6.57
2022-11-26T07:43:46.952Z,7.10
2022-11-26T07:46:17.994Z,6.70
2022-11-26T07:48:45.355Z,6.63
2022-11-26T07:51:28.208Z,6.97
2022-11-26T07:53:58.943Z,5.83
2022-11-26T07:56:27.081Z,6.47
2022-11-26T07:58:54.190Z,6.10
2022-11-26T08:01:32.513Z,5.03
2022-11-26T08:04:03.540Z,5.57
2022-11-26T08:06:31.533Z,5.90
2022-11-26T08:09:03.862Z,5.27
2022-11-26T08:11:33.887Z,5.53
2022-11-26T08:14:07.744Z,6.47
2022-11-26T08:16:35.203Z,6.13
2022-11-26T08:19:11.727Z,6.47
2022-11-26T08:21:39.604Z,6.83
2022-11-26T08:24:12.368Z,6.80
2022-11-26T08:26:43.901Z,6.20
2022-11-26T08:29:12.872Z,5.80
2022-11-26T08:31:45.511Z,5.73
2022-11-26T08:34:16.357Z,6.50
2022-11-26T08:36:44.237Z,5.87
2022-11-26T08:39:17.535Z,6.27
2022-11-26T08:41:51.749Z,5.90
2022-11-26T08:44:20.551Z,6.50
2022-11-26T08:46:47.834Z,6.33
2022-11-26T08:49:15.529Z,6.73
2022-11-26T08:51:43.532Z,6.90
2022-11-26T08:54:11.110Z,5.77
2022-11-26T08:56:37.977Z,6.40
2022-11-26T08:59:04.832Z,6.57
2022-11-26T09:01:33.881Z,6.07
2022-11-26T09:04:03.485Z,5.80
2022-11-26T09:06:33.240Z,6.10
2022-11-26T09:09:14.231Z,5.90
2022-11-26T09:11:57.299Z,6.10
2022-11-26T09:14:28.042Z,5.90
2022-11-26T09:16:56.249Z,5.70
2022-11-26T09:19:24.708Z,6.23
2022-11-26T09:21:51.578Z,5.67
2022-11-26T09:24:18.521Z,5.03
2022-11-26T09:26:46.117Z,5.23
2022-11-26T09:29:16.140Z,5.30
2022-11-26T09:32:15.521Z,4.77
2022-11-26T09:34:32.307Z,4.47
2022-11-26T09:36:59.122Z,4.80
2022-11-26T09:39:25.930Z,4.93
2022-11-26T09:42:20.280Z,4.50
2022-11-26T09:45:25.719Z,5.07
2022-11-26T09:47:54.354Z,5.23
2022-11-26T09:50:32.075Z,5.30
2022-11-26T09:53:22.381Z,5.83
2022-11-26T09:55:52.570Z,5.57
2022-11-26T09:58:50.070Z,6.10
2022-11-26T10:01:22.683Z,6.00
2022-11-26T10:03:51.280Z,5.20
2022-11-26T10:06:58.598Z,5.77
2022-11-26T10:09:48.386Z,6.07
2022-11-26T10:13:23.333Z,5.77
2022-11-26T10:16:05.492Z,5.87
2022-11-26T10:18:45.580Z,5.40
2022-11-26T10:21:44.405Z,5.30
2022-11-26T10:24:41.987Z,6.43
2022-11-26T10:27:20.701Z,5.87
2022-11-26T10:30:01.718Z,5.53
2022-11-26T10:32:44.044Z,5.53
2022-11-26T10:35:18.893Z,5.37
2022-11-26T10:37:46.056Z,4.20
2022-11-26T10:40:32.388Z,4.80
2022-11-26T10:43:12.553Z,5.00
2022-11-26T10:45:57.174Z,5.10
2022-11-26T10:48:35.045Z,5.33
2022-11-26T10:51:25.127Z,5.50
2022-11-26T10:54:05.065Z,5.10
2022-11-26T10:56:35.861Z,5.20
2022-11-26T10:59:22.586Z,5.32
2022-11-26T11:01:54.305Z,4.97
2022-11-26T11:04:26.348Z,5.40
2022-11-26T11:06:53.810Z,5.80
2022-11-26T11:09:36.398Z,5.67
2022-11-26T11:12:12.169Z,6.50
2022-11-26T11:14:43.222Z,4.80
2022-11-26T11:17:37.914Z,5.10
2022-11-26T11:20:16.833Z,4.90
2022-11-26T11:22:47.838Z,4.57
2022-11-26T11:25:25.408Z,4.97
2022-11-26T11:28:01.368Z,4.63
2022-11-26T11:30:34.702Z,5.00
2022-11-26T11:33:25.820Z,5.05
2022-11-26T11:36:00.259Z,4.27
2022-11-26T11:38:31.617Z,4.90
2022-11-26T11:41:03.446Z,3.80
2022-11-26T11:43:36.992Z,4.70
2022-11-26T11:46:50.611Z,4.77
2022-11-26T11:49:44.684Z,4.80
2022-11-26T11:52:48.534Z,5.63
2022-11-26T11:55:44.098Z,6.20
2022-11-26T11:58:16.849Z,6.37
2022-11-26T12:01:10.257Z,5.97
2022-11-26T12:03:53.816Z,6.07
2022-11-26T12:06:41.334Z,5.83
2022-11-26T12:09:34.587Z,6.77
2022-11-26T12:12:25.805Z,6.68
2022-11-26T12:15:06.268Z,6.40
2022-11-26T12:18:03.247Z,6.27
2022-11-26T12:20:44.797Z,5.83
2022-11-26T12:23:28.290Z,5.63
2022-11-26T12:26:27.552Z,5.90
2022-11-26T12:29:18.398Z,4.87
2022-11-26T12:32:16.436Z,5.53
2022-11-26T12:35:10.623Z,5.20
2022-11-26T12:37:41.532Z,5.83
2022-11-26T12:40:40.705Z,4.97
2022-11-26T12:43:21.274Z,5.43
2022-11-26T12:46:16.101Z,5.97
2022-11-26T12:49:20.485Z,6.27
2022-11-26T12:52:47.348Z,5.70
2022-11-26T12:55:31.675Z,5.80
2022-11-26T12:58:08.681Z,5.97
2022-11-26T13:00:36.592Z,6.20
2022-11-26T13:03:06.697Z,5.77
2022-11-26T13:06:08.869Z,5.57
2022-11-26T13:08:47.741Z,6.27
2022-11-26T13:11:41.539Z,5.73
2022-11-26T13:14:45.967Z,5.13
2022-11-26T13:17:18.757Z,5.87
2022-11-26T13:19:55.101Z,5.73
2022-11-26T13:22:53.821Z,5.80
2022-11-26T13:26:09.285Z,5.80
2022-11-26T13:29:19.876Z,6.30
2022-11-26T14:07:05.814Z,5.60
2022-11-26T14:09:44.598Z,4.43
2022-11-26T14:12:19.948Z,4.60
2022-11-26T14:14:49.093Z,5.33
2022-11-26T14:17:26.584Z,4.77
2022-11-26T14:19:58.441Z,4.53
2022-11-26T14:22:35.411Z,4.37
2022-11-26T14:25:09.691Z,4.83
2022-11-26T14:27:48.468Z,4.77
2022-11-26T14:30:22.835Z,4.07
2022-11-26T14:33:23.542Z,3.60
2022-11-26T14:35:56.661Z,4.70
2022-11-26T14:38:31.386Z,4.00
2022-11-26T14:41:02.457Z,4.27
2022-11-26T14:43:29.835Z,4.40
2022-11-26T14:46:06.191Z,3.97
2022-11-26T14:48:40.597Z,3.53
2022-11-26T14:51:13.373Z,3.67
2022-11-26T14:53:48.710Z,3.50
2022-11-26T14:56:18.735Z,3.70
2022-11-26T14:58:54.424Z,4.53
2022-11-26T15:01:25.082Z,3.87
2022-11-26T15:04:06.674Z,4.43
2022-11-26T15:06:42.822Z,4.43
2022-11-26T15:09:16.574Z,4.00
2022-11-26T15:12:12.089Z,3.97
2022-11-26T15:14:54.550Z,3.27
2022-11-26T15:17:26.229Z,3.87
2022-11-26T15:19:56.731Z,4.27
2022-11-26T15:22:38.994Z,3.50
2022-11-26T15:25:20.051Z,3.50
2022-11-26T15:28:18.665Z,3.23
2022-11-26T15:31:01.320Z,2.90
2022-11-26T15:33:31.892Z,3.00
2022-11-26T15:35:59.191Z,3.07
2022-11-26T15:38:31.793Z,2.80
2022-11-26T15:41:19.705Z,3.20
2022-11-26T15:43:51.734Z,2.90
2022-11-26T15:46:32.504Z,2.87
2022-11-26T15:49:05.614Z,3.30
2022-11-26T15:51:49.248Z,3.37
2022-11-26T15:55:10.831Z,2.90
2022-11-26T15:57:40.124Z,3.90
2022-11-26T16:00:20.248Z,4.67
2022-11-26T16:02:47.208Z,4.00
2022-11-26T16:05:39.338Z,4.73
2022-11-26T16:08:24.056Z,3.63
2022-11-26T16:11:03.065Z,3.30
2022-11-26T16:13:32.368Z,3.30
2022-11-26T16:16:16.817Z,3.57
2022-11-26T16:18:56.074Z,3.23
2022-11-26T16:21:30.274Z,3.07
2022-11-26T16:24:07.617Z,3.23
2022-11-26T16:27:25.035Z,3.10
2022-11-26T16:29:51.884Z,2.70
2022-11-26T16:32:19.192Z,3.47
2022-11-26T16:34:46.062Z,3.50
2022-11-26T16:37:27.458Z,2.93
2022-11-26T16:40:13.323Z,2.53
2022-11-26T16:42:40.138Z,2.43
2022-11-26T16:45:08.931Z,2.93
2022-11-26T16:47:49.777Z,2.30
2022-11-26T16:50:26.070Z,3.23
2022-11-26T16:52:54.477Z,2.73
2022-11-26T16:55:26.706Z,2.40
2022-11-26T16:57:58.131Z,3.03
2022-11-26T17:00:27.115Z,2.90
2022-11-26T17:02:54.787Z,2.87
2022-11-26T17:05:22.622Z,3.30
2022-11-26T17:07:57.025Z,2.73
2022-11-26T17:10:31.024Z,4.30
2022-11-26T17:12:58.475Z,3.93
2022-11-26T17:15:27.382Z,5.63
2022-11-26T17:18:02.919Z,6.43
2022-11-26T17:20:29.758Z,7.40
2022-11-26T17:22:56.562Z,7.23
2022-11-26T17:25:23.506Z,6.73
2022-11-26T17:27:53.243Z,7.17
2022-11-26T17:30:24.075Z,7.00
2022-11-26T17:32:51.314Z,9.00
2022-11-26T17:35:18.839Z,8.00
2022-11-26T17:37:45.976Z,9.03
2022-11-26T17:40:22.811Z,8.27
2022-11-26T17:42:50.630Z,8.30
2022-11-26T17:45:18.760Z,8.57
2022-11-26T17:47:46.463Z,9.50
2022-11-26T17:50:22.957Z,10.70
2022-11-26T17:52:50.576Z,12.57
2022-11-26T17:55:19.295Z,13.57
2022-11-26T17:57:46.126Z,12.93
2022-11-26T18:00:17.983Z,10.73
2022-11-26T18:02:46.230Z,11.07
2022-11-26T18:05:13.995Z,10.00
2022-11-26T18:07:41.256Z,10.47
2022-11-26T18:10:15.432Z,10.03
2022-11-26T18:12:43.499Z,9.77
2022-11-26T18:15:22.000Z,9.27
2022-11-26T18:17:51.773Z,10.93
2022-11-26T18:20:21.964Z,12.03
2022-11-26T18:22:58.492Z,10.57
2022-11-26T18:25:27.034Z,9.80
2022-11-26T18:27:54.385Z,9.50
2022-11-26T18:30:21.407Z,8.97
2022-11-26T18:32:51.346Z,8.27
2022-11-26T18:35:18.386Z,9.00
2022-11-26T18:37:45.425Z,8.80
2022-11-26T18:40:17.032Z,7.90
2022-11-26T18:42:44.391Z,8.60
2022-11-26T18:45:15.061Z,8.83
2022-11-26T18:47:42.399Z,9.20
2022-11-26T18:50:09.916Z,9.60
2022-11-26T18:52:36.797Z,8.23
2022-11-26T18:55:07.256Z,8.37
2022-11-26T18:57:34.048Z,7.27
2022-11-26T19:00:00.914Z,7.37
2022-11-26T19:02:27.780Z,7.37
2022-11-26T19:04:54.640Z,7.20
2022-11-26T19:07:21.428Z,8.13
2022-11-26T19:09:48.814Z,8.17
2022-11-26T19:12:15.643Z,7.90
2022-11-26T19:14:42.467Z,8.13
2022-11-26T19:17:12.403Z,8.43
2022-11-26T19:19:42.387Z,9.97
2022-11-26T19:22:09.236Z,8.93
2022-11-26T19:24:36.095Z,10.17
2022-11-26T19:27:02.890Z,9.13
2022-11-26T19:29:29.644Z,10.90
2022-11-26T19:31:56.442Z,10.63
2022-11-26T19:34:23.241Z,13.03
2022-11-26T19:36:53.161Z,11.47
2022-11-26T19:39:20.242Z,12.40
2022-11-26T19:41:47.020Z,11.37
2022-11-26T19:44:13.879Z,11.67
2022-11-26T19:46:41.783Z,12.80
2022-11-26T19:49:12.221Z,12.97
2022-11-26T19:51:39.424Z,13.70
2022-11-26T19:54:07.143Z,14.53
2022-11-26T19:56:35.023Z,14.57
2022-11-26T19:59:02.478Z,13.13
2022-11-26T20:01:33.279Z,12.00
2022-11-26T20:04:03.985Z,12.40
2022-11-26T20:06:33.870Z,13.07
2022-11-26T20:09:04.102Z,13.60
2022-11-26T20:11:30.989Z,17.63
2022-11-26T20:13:58.675Z,14.27
2022-11-26T20:16:29.900Z,12.97
2022-11-26T20:18:58.838Z,12.27
2022-11-26T20:21:29.296Z,12.90
2022-11-26T20:24:00.608Z,12.10
2022-11-26T20:26:35.101Z,8.43
2022-11-26T20:29:06.510Z,8.83
2022-11-26T20:31:34.791Z,11.80
2022-11-26T20:34:04.157Z,11.47
2022-11-26T20:36:31.956Z,9.60
2022-11-26T20:39:01.997Z,10.20
2022-11-26T20:41:30.342Z,10.87
2022-11-26T20:43:59.346Z,9.67
2022-11-26T20:46:28.343Z,10.80
2022-11-26T20:48:56.544Z,11.07
2022-11-26T20:51:24.515Z,9.83
2022-11-26T20:53:58.469Z,9.60
2022-11-26T20:56:25.456Z,9.97
2022-11-26T20:58:52.980Z,10.27
2022-11-26T21:01:24.071Z,10.40
2022-11-26T21:03:52.563Z,9.70
2022-11-26T21:06:29.039Z,9.53
2022-11-26T21:09:00.761Z,8.63
2022-11-26T21:11:28.526Z,8.50
2022-11-26T21:13:55.356Z,8.27
2022-11-26T21:16:23.288Z,7.77
2022-11-26T21:18:54.196Z,8.33
2022-11-26T21:21:21.613Z,8.50
2022-11-26T21:23:48.521Z,5.97
2022-11-26T21:26:25.733Z,5.37
2022-11-26T21:28:58.947Z,10.47
2022-11-26T21:31:29.670Z,6.60
2022-11-26T21:34:00.875Z,4.80
2022-11-26T21:36:30.136Z,5.60
2022-11-26T21:38:57.273Z,4.40
2022-11-26T21:41:25.566Z,4.13
2022-11-26T21:43:52.592Z,4.33
2022-11-26T21:46:23.962Z,4.87
2022-11-26T21:48:53.213Z,4.93
2022-11-26T21:51:20.713Z,4.53
2022-11-26T21:53:49.755Z,4.53
2022-11-26T21:56:21.995Z,4.27
2022-11-26T21:58:50.251Z,4.80
2022-11-26T22:01:31.651Z,4.77
2022-11-26T22:04:10.428Z,4.80
2022-11-26T22:06:37.598Z,4.20
2022-11-26T22:09:06.044Z,5.53
2022-11-26T22:11:37.510Z,5.30
2022-11-26T22:14:05.746Z,4.77
2022-11-26T22:16:32.916Z,4.90
2022-11-26T22:19:01.550Z,5.43
2022-11-26T22:21:33.464Z,4.03
2022-11-26T22:24:02.862Z,5.33
2022-11-26T22:26:31.157Z,4.73
2022-11-26T22:28:59.340Z,5.07
2022-11-26T22:31:35.850Z,4.87
2022-11-26T22:34:10.129Z,5.17
2022-11-26T22:36:38.784Z,4.93
2022-11-26T22:39:10.904Z,4.50
2022-11-26T22:41:40.810Z,4.90
2022-11-26T22:44:08.343Z,5.20
2022-11-26T22:46:38.131Z,5.03
2022-11-26T22:49:06.066Z,4.90
2022-11-26T22:51:36.481Z,5.57
2022-11-26T22:54:07.377Z,5.40
2022-11-26T22:56:39.750Z,5.80
2022-11-26T22:59:09.152Z,5.83
2022-11-26T23:01:37.132Z,5.33
2022-11-26T23:04:08.014Z,5.77
2022-11-26T23:06:36.431Z,5.60
2022-11-26T23:09:06.800Z,5.40
2022-11-26T23:11:40.375Z,5.03
2022-11-26T23:14:09.540Z,4.97
2022-11-26T23:16:39.082Z,5.73
2022-11-26T23:19:07.150Z,5.50
2022-11-26T23:21:39.939Z,5.40
2022-11-26T23:24:07.820Z,5.93
2022-11-26T23:26:37.406Z,6.00
2022-11-26T23:29:06.133Z,4.07
2022-11-26T23:31:40.408Z,6.50
2022-11-26T23:34:08.753Z,5.03
2022-11-26T23:36:37.177Z,6.00
2022-11-26T23:39:07.226Z,6.50
2022-11-26T23:41:34.270Z,7.00
2022-11-26T23:44:01.063Z,7.60
2022-11-26T23:46:31.224Z,6.73
2022-11-26T23:48:58.706Z,6.90
2022-11-26T23:51:32.007Z,6.53
2022-11-26T23:53:58.861Z,6.47
2022-11-26T23:56:31.643Z,6.30
2022-11-26T23:59:02.607Z,6.53
